sensor_id;sensor_type;location;lat;lon;timestamp;P1;durP1;ratioP1;P2;durP2;ratioP2
38182;SDS011;23991;52.430;10.586;2023-09-18T00:01:11;6.78;;;3.88;;
38182;SDS011;23991;52.430;10.586;2023-09-18T00:03:37;4.18;;;3.42;;
38182;SDS011;23991;52.430;10.586;2023-09-18T00:06:09;7.32;;;4.00;;
38182;SDS011;23991;52.430;10.586;2023-09-18T00:08:36;5.95;;;3.83;;
38182;SDS011;23991;52.430;10.586;2023-09-18T00:11:04;7.07;;;4.25;;
38182;SDS011;23991;52.430;10.586;2023-09-18T00:13:31;4.82;;;3.88;;
38182;SDS011;23991;52.430;10.586;2023-09-18T00:15:57;6.35;;;4.35;;
38182;SDS011;23991;52.430;10.586;2023-09-18T00:18:25;5.28;;;3.88;;
38182;SDS011;23991;52.430;10.586;2023-09-18T00:20:50;8.95;;;3.75;;
38182;SDS011;23991;52.430;10.586;2023-09-18T00:23:17;6.85;;;4.10;;
38182;SDS011;23991;52.430;10.586;2023-09-18T00:25:42;4.95;;;3.67;;
38182;SDS011;23991;52.430;10.586;2023-09-18T00:28:08;5.57;;;3.67;;
38182;SDS011;23991;52.430;10.586;2023-09-18T00:30:34;5.63;;;3.78;;
38182;SDS011;23991;52.430;10.586;2023-09-18T00:33:00;4.90;;;4.00;;
38182;SDS011;23991;52.430;10.586;2023-09-18T00:35:25;6.30;;;3.75;;
38182;SDS011;23991;52.430;10.586;2023-09-18T00:37:51;6.35;;;4.60;;
38182;SDS011;23991;52.430;10.586;2023-09-18T00:40:16;4.95;;;3.90;;
38182;SDS011;23991;52.430;10.586;2023-09-18T00:42:43;7.00;;;3.90;;
38182;SDS011;23991;52.430;10.586;2023-09-18T00:45:09;6.05;;;3.60;;
38182;SDS011;23991;52.430;10.586;2023-09-18T00:47:35;7.65;;;4.13;;
38182;SDS011;23991;52.430;10.586;2023-09-18T00:50:01;7.38;;;4.07;;
38182;SDS011;23991;52.430;10.586;2023-09-18T00:52:29;5.20;;;3.85;;
38182;SDS011;23991;52.430;10.586;2023-09-18T00:54:56;8.07;;;4.50;;
38182;SDS011;23991;52.430;10.586;2023-09-18T00:57:22;5.57;;;4.45;;
38182;SDS011;23991;52.430;10.586;2023-09-18T00:59:48;8.02;;;4.20;;
38182;SDS011;23991;52.430;10.586;2023-09-18T01:02:14;5.40;;;4.13;;
38182;SDS011;23991;52.430;10.586;2023-09-18T01:04:40;7.40;;;4.28;;
38182;SDS011;23991;52.430;10.586;2023-09-18T01:07:09;5.55;;;4.20;;
38182;SDS011;23991;52.430;10.586;2023-09-18T01:09:35;6.28;;;4.00;;
38182;SDS011;23991;52.430;10.586;2023-09-18T01:12:06;5.07;;;4.18;;
38182;SDS011;23991;52.430;10.586;2023-09-18T01:17:24;5.68;;;4.05;;
38182;SDS011;23991;52.430;10.586;2023-09-18T01:19:51;6.93;;;4.15;;
38182;SDS011;23991;52.430;10.586;2023-09-18T01:22:17;7.30;;;4.07;;
38182;SDS011;23991;52.430;10.586;2023-09-18T01:24:45;5.35;;;3.92;;
38182;SDS011;23991;52.430;10.586;2023-09-18T01:27:15;8.45;;;4.55;;
38182;SDS011;23991;52.430;10.586;2023-09-18T01:29:42;6.40;;;4.43;;
38182;SDS011;23991;52.430;10.586;2023-09-18T01:32:08;5.22;;;4.50;;
38182;SDS011;23991;52.430;10.586;2023-09-18T01:34:35;9.43;;;4.13;;
38182;SDS011;23991;52.430;10.586;2023-09-18T01:37:09;6.22;;;4.00;;
38182;SDS011;23991;52.430;10.586;2023-09-18T01:39:36;6.63;;;3.92;;
38182;SDS011;23991;52.430;10.586;2023-09-18T01:42:04;7.45;;;4.68;;
38182;SDS011;23991;52.430;10.586;2023-09-18T01:44:31;7.50;;;4.30;;
38182;SDS011;23991;52.430;10.586;2023-09-18T01:47:02;6.05;;;4.45;;
38182;SDS011;23991;52.430;10.586;2023-09-18T01:49:33;6.28;;;5.00;;
38182;SDS011;23991;52.430;10.586;2023-09-18T01:52:00;5.63;;;4.13;;
38182;SDS011;23991;52.430;10.586;2023-09-18T01:54:26;5.88;;;4.35;;
38182;SDS011;23991;52.430;10.586;2023-09-18T01:56:55;8.23;;;3.95;;
38182;SDS011;23991;52.430;10.586;2023-09-18T01:59:21;6.43;;;4.63;;
38182;SDS011;23991;52.430;10.586;2023-09-18T02:01:48;4.60;;;4.15;;
38182;SDS011;23991;52.430;10.586;2023-09-18T02:04:14;6.40;;;4.47;;
38182;SDS011;23991;52.430;10.586;2023-09-18T02:06:40;5.82;;;4.40;;
38182;SDS011;23991;52.430;10.586;2023-09-18T02:09:09;5.82;;;4.38;;
38182;SDS011;23991;52.430;10.586;2023-09-18T02:11:38;8.97;;;4.60;;
38182;SDS011;23991;52.430;10.586;2023-09-18T02:14:09;4.45;;;4.05;;
38182;SDS011;23991;52.430;10.586;2023-09-18T02:16:36;7.03;;;4.88;;
38182;SDS011;23991;52.430;10.586;2023-09-18T02:19:03;6.10;;;4.95;;
38182;SDS011;23991;52.430;10.586;2023-09-18T02:21:29;8.82;;;5.00;;
38182;SDS011;23991;52.430;10.586;2023-09-18T02:23:55;5.88;;;5.15;;
38182;SDS011;23991;52.430;10.586;2023-09-18T02:26:22;7.75;;;4.93;;
38182;SDS011;23991;52.430;10.586;2023-09-18T02:28:48;6.60;;;5.25;;
38182;SDS011;23991;52.430;10.586;2023-09-18T02:31:14;8.43;;;5.22;;
38182;SDS011;23991;52.430;10.586;2023-09-18T02:33:41;5.78;;;4.60;;
38182;SDS011;23991;52.430;10.586;2023-09-18T02:36:07;6.40;;;4.40;;
38182;SDS011;23991;52.430;10.586;2023-09-18T02:38:33;5.70;;;4.60;;
38182;SDS011;23991;52.430;10.586;2023-09-18T02:40:59;6.90;;;4.57;;
38182;SDS011;23991;52.430;10.586;2023-09-18T02:43:25;8.15;;;5.05;;
38182;SDS011;23991;52.430;10.586;2023-09-18T02:45:51;5.90;;;4.50;;
38182;SDS011;23991;52.430;10.586;2023-09-18T02:48:17;6.13;;;4.70;;
38182;SDS011;23991;52.430;10.586;2023-09-18T02:50:43;6.85;;;4.97;;
38182;SDS011;23991;52.430;10.586;2023-09-18T02:53:16;9.88;;;4.72;;
38182;SDS011;23991;52.430;10.586;2023-09-18T02:55:43;5.28;;;4.57;;
38182;SDS011;23991;52.430;10.586;2023-09-18T02:58:09;5.25;;;4.55;;
38182;SDS011;23991;52.430;10.586;2023-09-18T03:00:40;5.82;;;4.78;;
38182;SDS011;23991;52.430;10.586;2023-09-18T03:03:08;6.43;;;5.35;;
38182;SDS011;23991;52.430;10.586;2023-09-18T03:05:34;7.03;;;4.65;;
38182;SDS011;23991;52.430;10.586;2023-09-18T03:08:00;8.15;;;4.88;;
38182;SDS011;23991;52.430;10.586;2023-09-18T03:10:25;6.55;;;5.10;;
38182;SDS011;23991;52.430;10.586;2023-09-18T03:12:51;8.43;;;4.90;;
38182;SDS011;23991;52.430;10.586;2023-09-18T03:15:16;6.75;;;4.93;;
38182;SDS011;23991;52.430;10.586;2023-09-18T03:17:42;10.40;;;5.20;;
38182;SDS011;23991;52.430;10.586;2023-09-18T03:20:08;6.88;;;5.03;;
38182;SDS011;23991;52.430;10.586;2023-09-18T03:22:34;6.75;;;5.07;;
38182;SDS011;23991;52.430;10.586;2023-09-18T03:25:00;5.85;;;4.68;;
38182;SDS011;23991;52.430;10.586;2023-09-18T03:27:26;5.22;;;4.70;;
38182;SDS011;23991;52.430;10.586;2023-09-18T03:29:57;7.65;;;5.43;;
38182;SDS011;23991;52.430;10.586;2023-09-18T03:32:23;7.85;;;5.03;;
38182;SDS011;23991;52.430;10.586;2023-09-18T03:34:52;6.82;;;5.30;;
38182;SDS011;23991;52.430;10.586;2023-09-18T03:37:18;5.65;;;4.95;;
38182;SDS011;23991;52.430;10.586;2023-09-18T03:39:44;6.95;;;5.05;;
38182;SDS011;23991;52.430;10.586;2023-09-18T03:42:10;5.20;;;4.70;;
38182;SDS011;23991;52.430;10.586;2023-09-18T03:44:36;5.93;;;5.03;;
38182;SDS011;23991;52.430;10.586;2023-09-18T03:47:02;6.00;;;4.85;;
38182;SDS011;23991;52.430;10.586;2023-09-18T03:49:29;5.85;;;4.80;;
38182;SDS011;23991;52.430;10.586;2023-09-18T03:51:55;6.03;;;5.00;;
38182;SDS011;23991;52.430;10.586;2023-09-18T03:54:20;6.10;;;4.65;;
38182;SDS011;23991;52.430;10.586;2023-09-18T03:56:46;6.13;;;5.20;;
38182;SDS011;23991;52.430;10.586;2023-09-18T03:59:12;7.20;;;5.10;;
38182;SDS011;23991;52.430;10.586;2023-09-18T04:01:38;8.35;;;5.22;;
38182;SDS011;23991;52.430;10.586;2023-09-18T04:04:04;6.80;;;4.97;;
38182;SDS011;23991;52.430;10.586;2023-09-18T04:06:37;5.85;;;4.93;;
38182;SDS011;23991;52.430;10.586;2023-09-18T04:09:07;6.47;;;4.80;;
38182;SDS011;23991;52.430;10.586;2023-09-18T04:11:33;8.48;;;5.45;;
38182;SDS011;23991;52.430;10.586;2023-09-18T04:13:59;6.93;;;5.38;;
38182;SDS011;23991;52.430;10.586;2023-09-18T04:16:26;5.88;;;5.07;;
38182;SDS011;23991;52.430;10.586;2023-09-18T04:19:01;6.68;;;5.75;;
38182;SDS011;23991;52.430;10.586;2023-09-18T04:21:27;7.78;;;5.15;;
38182;SDS011;23991;52.430;10.586;2023-09-18T04:23:54;6.95;;;5.20;;
38182;SDS011;23991;52.430;10.586;2023-09-18T04:26:25;5.68;;;4.57;;
38182;SDS011;23991;52.430;10.586;2023-09-18T04:28:59;11.60;;;5.50;;
38182;SDS011;23991;52.430;10.586;2023-09-18T04:31:25;8.38;;;5.20;;
38182;SDS011;23991;52.430;10.586;2023-09-18T04:33:52;7.25;;;5.57;;
38182;SDS011;23991;52.430;10.586;2023-09-18T04:36:18;6.72;;;5.00;;
38182;SDS011;23991;52.430;10.586;2023-09-18T04:38:46;7.00;;;5.35;;
38182;SDS011;23991;52.430;10.586;2023-09-18T04:41:13;8.38;;;5.20;;
38182;SDS011;23991;52.430;10.586;2023-09-18T04:43:40;8.00;;;5.75;;
38182;SDS011;23991;52.430;10.586;2023-09-18T04:46:06;6.80;;;5.32;;
38182;SDS011;23991;52.430;10.586;2023-09-18T04:48:32;8.35;;;5.53;;
38182;SDS011;23991;52.430;10.586;2023-09-18T04:50:58;6.20;;;5.13;;
38182;SDS011;23991;52.430;10.586;2023-09-18T04:53:24;6.88;;;5.45;;
38182;SDS011;23991;52.430;10.586;2023-09-18T04:55:51;5.97;;;4.53;;
38182;SDS011;23991;52.430;10.586;2023-09-18T04:58:17;6.55;;;4.85;;
38182;SDS011;23991;52.430;10.586;2023-09-18T05:00:43;7.47;;;5.30;;
38182;SDS011;23991;52.430;10.586;2023-09-18T05:03:10;8.23;;;5.72;;
38182;SDS011;23991;52.430;10.586;2023-09-18T05:05:38;9.23;;;5.72;;
38182;SDS011;23991;52.430;10.586;2023-09-18T05:08:06;6.22;;;5.30;;
38182;SDS011;23991;52.430;10.586;2023-09-18T05:10:35;6.13;;;5.22;;
38182;SDS011;23991;52.430;10.586;2023-09-18T05:13:02;8.55;;;5.40;;
38182;SDS011;23991;52.430;10.586;2023-09-18T05:15:28;8.15;;;5.30;;
38182;SDS011;23991;52.430;10.586;2023-09-18T05:17:55;5.97;;;5.07;;
38182;SDS011;23991;52.430;10.586;2023-09-18T05:20:23;6.57;;;5.03;;
38182;SDS011;23991;52.430;10.586;2023-09-18T05:22:50;7.95;;;4.90;;
38182;SDS011;23991;52.430;10.586;2023-09-18T05:25:23;8.73;;;4.88;;
38182;SDS011;23991;52.430;10.586;2023-09-18T05:27:51;7.22;;;5.20;;
38182;SDS011;23991;52.430;10.586;2023-09-18T05:30:23;6.95;;;5.60;;
38182;SDS011;23991;52.430;10.586;2023-09-18T05:32:53;7.07;;;5.68;;
38182;SDS011;23991;52.430;10.586;2023-09-18T05:35:19;7.25;;;5.13;;
38182;SDS011;23991;52.430;10.586;2023-09-18T05:37:46;5.82;;;4.47;;
38182;SDS011;23991;52.430;10.586;2023-09-18T05:40:13;7.38;;;4.53;;
38182;SDS011;23991;52.430;10.586;2023-09-18T05:42:39;8.57;;;5.05;;
38182;SDS011;23991;52.430;10.586;2023-09-18T05:45:08;5.18;;;4.65;;
38182;SDS011;23991;52.430;10.586;2023-09-18T05:47:38;6.90;;;4.78;;
38182;SDS011;23991;52.430;10.586;2023-09-18T05:50:07;5.82;;;4.68;;
38182;SDS011;23991;52.430;10.586;2023-09-18T05:52:34;9.25;;;4.90;;
38182;SDS011;23991;52.430;10.586;2023-09-18T05:55:04;9.95;;;4.93;;
38182;SDS011;23991;52.430;10.586;2023-09-18T05:57:30;7.00;;;6.10;;
38182;SDS011;23991;52.430;10.586;2023-09-18T05:59:55;9.30;;;8.30;;
38182;SDS011;23991;52.430;10.586;2023-09-18T06:02:22;10.30;;;7.60;;
38182;SDS011;23991;52.430;10.586;2023-09-18T06:04:50;9.90;;;6.10;;
38182;SDS011;23991;52.430;10.586;2023-09-18T06:07:25;5.20;;;4.65;;
38182;SDS011;23991;52.430;10.586;2023-09-18T06:09:51;8.23;;;5.15;;
38182;SDS011;23991;52.430;10.586;2023-09-18T06:12:17;7.13;;;4.18;;
38182;SDS011;23991;52.430;10.586;2023-09-18T06:14:43;11.55;;;4.40;;
38182;SDS011;23991;52.430;10.586;2023-09-18T06:17:10;5.80;;;4.60;;
38182;SDS011;23991;52.430;10.586;2023-09-18T06:19:35;6.22;;;4.85;;
38182;SDS011;23991;52.430;10.586;2023-09-18T06:22:01;9.23;;;4.43;;
38182;SDS011;23991;52.430;10.586;2023-09-18T06:24:27;6.20;;;4.55;;
38182;SDS011;23991;52.430;10.586;2023-09-18T06:26:53;7.35;;;4.32;;
38182;SDS011;23991;52.430;10.586;2023-09-18T06:29:19;8.20;;;4.30;;
38182;SDS011;23991;52.430;10.586;2023-09-18T06:31:45;4.80;;;4.28;;
38182;SDS011;23991;52.430;10.586;2023-09-18T06:34:11;5.07;;;4.15;;
38182;SDS011;23991;52.430;10.586;2023-09-18T06:36:37;5.82;;;4.20;;
38182;SDS011;23991;52.430;10.586;2023-09-18T06:39:03;7.28;;;4.18;;
38182;SDS011;23991;52.430;10.586;2023-09-18T06:41:29;6.18;;;3.95;;
38182;SDS011;23991;52.430;10.586;2023-09-18T06:43:54;5.65;;;4.18;;
38182;SDS011;23991;52.430;10.586;2023-09-18T06:46:21;5.05;;;4.05;;
38182;SDS011;23991;52.430;10.586;2023-09-18T06:48:47;4.68;;;3.63;;
38182;SDS011;23991;52.430;10.586;2023-09-18T06:51:16;5.18;;;3.88;;
38182;SDS011;23991;52.430;10.586;2023-09-18T06:53:42;4.55;;;3.75;;
38182;SDS011;23991;52.430;10.586;2023-09-18T06:56:08;6.68;;;4.10;;
38182;SDS011;23991;52.430;10.586;2023-09-18T06:58:34;5.53;;;3.65;;
38182;SDS011;23991;52.430;10.586;2023-09-18T07:01:00;6.85;;;4.10;;
38182;SDS011;23991;52.430;10.586;2023-09-18T07:03:26;5.03;;;3.60;;
38182;SDS011;23991;52.430;10.586;2023-09-18T07:05:51;6.15;;;4.07;;
38182;SDS011;23991;52.430;10.586;2023-09-18T07:08:17;8.55;;;3.80;;
38182;SDS011;23991;52.430;10.586;2023-09-18T07:10:48;5.70;;;3.88;;
38182;SDS011;23991;52.430;10.586;2023-09-18T07:13:15;5.35;;;3.97;;
38182;SDS011;23991;52.430;10.586;2023-09-18T07:15:40;5.07;;;3.92;;
38182;SDS011;23991;52.430;10.586;2023-09-18T07:18:06;4.35;;;3.42;;
38182;SDS011;23991;52.430;10.586;2023-09-18T07:20:32;4.15;;;3.25;;
38182;SDS011;23991;52.430;10.586;2023-09-18T07:22:58;6.60;;;3.47;;
38182;SDS011;23991;52.430;10.586;2023-09-18T07:25:24;5.55;;;3.58;;
38182;SDS011;23991;52.430;10.586;2023-09-18T07:27:49;5.38;;;3.45;;
38182;SDS011;23991;52.430;10.586;2023-09-18T07:30:15;6.38;;;3.70;;
38182;SDS011;23991;52.430;10.586;2023-09-18T07:32:41;5.13;;;3.83;;
38182;SDS011;23991;52.430;10.586;2023-09-18T07:35:08;4.13;;;3.55;;
38182;SDS011;23991;52.430;10.586;2023-09-18T07:37:34;5.00;;;3.35;;
38182;SDS011;23991;52.430;10.586;2023-09-18T07:40:02;6.90;;;4.38;;
38182;SDS011;23991;52.430;10.586;2023-09-18T07:42:29;4.20;;;3.28;;
38182;SDS011;23991;52.430;10.586;2023-09-18T07:44:54;5.93;;;3.42;;
38182;SDS011;23991;52.430;10.586;2023-09-18T07:47:20;6.75;;;3.60;;
38182;SDS011;23991;52.430;10.586;2023-09-18T07:49:47;7.88;;;4.07;;
38182;SDS011;23991;52.430;10.586;2023-09-18T07:52:13;5.80;;;3.63;;
38182;SDS011;23991;52.430;10.586;2023-09-18T07:54:38;4.93;;;3.42;;
38182;SDS011;23991;52.430;10.586;2023-09-18T07:57:04;4.75;;;3.70;;
38182;SDS011;23991;52.430;10.586;2023-09-18T07:59:34;4.95;;;3.60;;
38182;SDS011;23991;52.430;10.586;2023-09-18T08:02:00;4.68;;;3.33;;
38182;SDS011;23991;52.430;10.586;2023-09-18T08:04:26;5.07;;;3.85;;
38182;SDS011;23991;52.430;10.586;2023-09-18T08:06:51;6.15;;;4.03;;
38182;SDS011;23991;52.430;10.586;2023-09-18T08:09:17;5.47;;;3.83;;
38182;SDS011;23991;52.430;10.586;2023-09-18T08:11:43;6.35;;;4.30;;
38182;SDS011;23991;52.430;10.586;2023-09-18T08:14:09;10.82;;;5.30;;
38182;SDS011;23991;52.430;10.586;2023-09-18T08:16:35;7.32;;;4.80;;
38182;SDS011;23991;52.430;10.586;2023-09-18T08:19:06;7.47;;;4.43;;
38182;SDS011;23991;52.430;10.586;2023-09-18T08:21:32;6.20;;;4.80;;
38182;SDS011;23991;52.430;10.586;2023-09-18T08:23:58;6.60;;;3.85;;
38182;SDS011;23991;52.430;10.586;2023-09-18T08:26:24;4.63;;;3.28;;
38182;SDS011;23991;52.430;10.586;2023-09-18T08:28:50;6.30;;;3.88;;
38182;SDS011;23991;52.430;10.586;2023-09-18T08:31:16;4.68;;;3.40;;
38182;SDS011;23991;52.430;10.586;2023-09-18T08:33:43;4.50;;;3.78;;
38182;SDS011;23991;52.430;10.586;2023-09-18T08:36:09;5.45;;;3.60;;
38182;SDS011;23991;52.430;10.586;2023-09-18T08:38:35;7.18;;;3.85;;
38182;SDS011;23991;52.430;10.586;2023-09-18T08:41:00;6.13;;;4.00;;
38182;SDS011;23991;52.430;10.586;2023-09-18T08:43:27;5.05;;;3.28;;
38182;SDS011;23991;52.430;10.586;2023-09-18T08:45:56;4.57;;;3.70;;
38182;SDS011;23991;52.430;10.586;2023-09-18T08:50:59;6.22;;;3.33;;
38182;SDS011;23991;52.430;10.586;2023-09-18T08:53:34;4.97;;;3.17;;
38182;SDS011;23991;52.430;10.586;2023-09-18T08:56:01;6.18;;;3.17;;
38182;SDS011;23991;52.430;10.586;2023-09-18T08:58:32;10.40;;;4.05;;
38182;SDS011;23991;52.430;10.586;2023-09-18T09:01:02;5.35;;;3.55;;
38182;SDS011;23991;52.430;10.586;2023-09-18T09:03:34;6.78;;;3.13;;
38182;SDS011;23991;52.430;10.586;2023-09-18T09:06:04;7.93;;;3.13;;
38182;SDS011;23991;52.430;10.586;2023-09-18T09:08:32;7.82;;;3.60;;
38182;SDS011;23991;52.430;10.586;2023-09-18T09:10:58;12.52;;;3.55;;
38182;SDS011;23991;52.430;10.586;2023-09-18T09:13:24;10.57;;;4.18;;
38182;SDS011;23991;52.430;10.586;2023-09-18T09:15:52;8.05;;;3.80;;
38182;SDS011;23991;52.430;10.586;2023-09-18T09:18:20;8.48;;;3.55;;
38182;SDS011;23991;52.430;10.586;2023-09-18T09:20:54;6.43;;;3.33;;
38182;SDS011;23991;52.430;10.586;2023-09-18T09:23:24;7.07;;;3.50;;
38182;SDS011;23991;52.430;10.586;2023-09-18T09:25:51;6.78;;;3.58;;
38182;SDS011;23991;52.430;10.586;2023-09-18T09:28:26;7.45;;;3.63;;
38182;SDS011;23991;52.430;10.586;2023-09-18T09:30:59;9.68;;;4.15;;
38182;SDS011;23991;52.430;10.586;2023-09-18T09:33:27;7.07;;;3.03;;
38182;SDS011;23991;52.430;10.586;2023-09-18T09:35:54;6.32;;;3.50;;
38182;SDS011;23991;52.430;10.586;2023-09-18T09:38:22;11.05;;;4.15;;
38182;SDS011;23991;52.430;10.586;2023-09-18T09:40:56;6.60;;;4.07;;
38182;SDS011;23991;52.430;10.586;2023-09-18T09:43:24;8.05;;;4.43;;
38182;SDS011;23991;52.430;10.586;2023-09-18T09:45:56;8.23;;;3.78;;
38182;SDS011;23991;52.430;10.586;2023-09-18T09:48:25;7.18;;;3.70;;
38182;SDS011;23991;52.430;10.586;2023-09-18T09:50:52;8.73;;;3.40;;
38182;SDS011;23991;52.430;10.586;2023-09-18T09:53:41;5.95;;;3.70;;
38182;SDS011;23991;52.430;10.586;2023-09-18T09:56:08;5.15;;;3.53;;
38182;SDS011;23991;52.430;10.586;2023-09-18T09:58:34;7.00;;;3.45;;
38182;SDS011;23991;52.430;10.586;2023-09-18T10:01:02;7.75;;;3.28;;
38182;SDS011;23991;52.430;10.586;2023-09-18T10:03:33;7.43;;;3.35;;
38182;SDS011;23991;52.430;10.586;2023-09-18T10:06:00;10.73;;;3.60;;
38182;SDS011;23991;52.430;10.586;2023-09-18T10:08:29;8.45;;;3.10;;
38182;SDS011;23991;52.430;10.586;2023-09-18T10:11:04;10.55;;;3.20;;
38182;SDS011;23991;52.430;10.586;2023-09-18T10:16:08;9.93;;;2.90;;
38182;SDS011;23991;52.430;10.586;2023-09-18T10:18:54;7.65;;;2.75;;
38182;SDS011;23991;52.430;10.586;2023-09-18T10:26:54;10.20;;;2.97;;
38182;SDS011;23991;52.430;10.586;2023-09-18T10:29:24;8.18;;;3.10;;
38182;SDS011;23991;52.430;10.586;2023-09-18T10:31:51;7.63;;;2.78;;
38182;SDS011;23991;52.430;10.586;2023-09-18T10:34:19;7.63;;;2.90;;
38182;SDS011;23991;52.430;10.586;2023-09-18T10:36:49;8.57;;;3.20;;
38182;SDS011;23991;52.430;10.586;2023-09-18T10:39:16;10.60;;;3.17;;
38182;SDS011;23991;52.430;10.586;2023-09-18T10:41:51;8.82;;;3.78;;
38182;SDS011;23991;52.430;10.586;2023-09-18T10:44:18;8.35;;;2.85;;
38182;SDS011;23991;52.430;10.586;2023-09-18T10:46:48;8.88;;;3.40;;
38182;SDS011;23991;52.430;10.586;2023-09-18T10:49:15;7.75;;;3.00;;
38182;SDS011;23991;52.430;10.586;2023-09-18T10:51:41;11.25;;;2.95;;
38182;SDS011;23991;52.430;10.586;2023-09-18T10:54:09;10.70;;;3.28;;
38182;SDS011;23991;52.430;10.586;2023-09-18T10:56:35;6.10;;;2.95;;
38182;SDS011;23991;52.430;10.586;2023-09-18T10:59:01;8.23;;;2.70;;
38182;SDS011;23991;52.430;10.586;2023-09-18T11:01:30;8.70;;;3.20;;
38182;SDS011;23991;52.430;10.586;2023-09-18T11:03:57;8.50;;;2.80;;
38182;SDS011;23991;52.430;10.586;2023-09-18T11:06:26;10.32;;;3.40;;
38182;SDS011;23991;52.430;10.586;2023-09-18T11:09:00;4.90;;;2.50;;
38182;SDS011;23991;52.430;10.586;2023-09-18T11:11:29;8.07;;;2.78;;
38182;SDS011;23991;52.430;10.586;2023-09-18T11:13:57;7.50;;;2.97;;
38182;SDS011;23991;52.430;10.586;2023-09-18T11:21:32;6.35;;;2.55;;
38182;SDS011;23991;52.430;10.586;2023-09-18T11:24:00;5.10;;;2.42;;
38182;SDS011;23991;52.430;10.586;2023-09-18T11:26:31;8.07;;;3.42;;
38182;SDS011;23991;52.430;10.586;2023-09-18T11:29:01;9.25;;;3.00;;
38182;SDS011;23991;52.430;10.586;2023-09-18T11:34:15;9.85;;;2.53;;
38182;SDS011;23991;52.430;10.586;2023-09-18T11:36:48;8.25;;;2.47;;
38182;SDS011;23991;52.430;10.586;2023-09-18T11:39:32;8.95;;;2.72;;
38182;SDS011;23991;52.430;10.586;2023-09-18T11:42:08;9.18;;;2.55;;
38182;SDS011;23991;52.430;10.586;2023-09-18T11:44:41;7.53;;;2.65;;
38182;SDS011;23991;52.430;10.586;2023-09-18T11:47:07;15.80;;;3.17;;
38182;SDS011;23991;52.430;10.586;2023-09-18T11:49:41;5.85;;;2.63;;
38182;SDS011;23991;52.430;10.586;2023-09-18T11:52:15;10.30;;;2.97;;
38182;SDS011;23991;52.430;10.586;2023-09-18T11:54:43;9.77;;;2.42;;
38182;SDS011;23991;52.430;10.586;2023-09-18T11:57:11;7.20;;;2.83;;
38182;SDS011;23991;52.430;10.586;2023-09-18T11:59:39;6.35;;;2.45;;
38182;SDS011;23991;52.430;10.586;2023-09-18T12:02:30;8.23;;;2.40;;
38182;SDS011;23991;52.430;10.586;2023-09-18T12:05:15;5.75;;;2.42;;
38182;SDS011;23991;52.430;10.586;2023-09-18T12:07:43;4.72;;;2.05;;
38182;SDS011;23991;52.430;10.586;2023-09-18T12:10:10;4.82;;;1.90;;
38182;SDS011;23991;52.430;10.586;2023-09-18T12:12:38;7.00;;;2.60;;
38182;SDS011;23991;52.430;10.586;2023-09-18T12:15:04;6.95;;;2.47;;
38182;SDS011;23991;52.430;10.586;2023-09-18T12:17:30;8.32;;;2.40;;
38182;SDS011;23991;52.430;10.586;2023-09-18T12:19:56;6.32;;;2.90;;
38182;SDS011;23991;52.430;10.586;2023-09-18T12:22:28;7.00;;;2.10;;
38182;SDS011;23991;52.430;10.586;2023-09-18T12:25:11;10.45;;;2.67;;
38182;SDS011;23991;52.430;10.586;2023-09-18T12:27:39;4.70;;;2.03;;
38182;SDS011;23991;52.430;10.586;2023-09-18T12:30:05;5.38;;;2.00;;
38182;SDS011;23991;52.430;10.586;2023-09-18T12:32:31;10.52;;;2.85;;
38182;SDS011;23991;52.430;10.586;2023-09-18T12:35:00;8.43;;;2.45;;
38182;SDS011;23991;52.430;10.586;2023-09-18T12:37:26;4.80;;;2.30;;
38182;SDS011;23991;52.430;10.586;2023-09-18T12:39:52;7.80;;;2.30;;
38182;SDS011;23991;52.430;10.586;2023-09-18T12:42:18;11.63;;;2.92;;
38182;SDS011;23991;52.430;10.586;2023-09-18T12:44:48;7.18;;;2.85;;
38182;SDS011;23991;52.430;10.586;2023-09-18T12:47:14;7.03;;;2.50;;
38182;SDS011;23991;52.430;10.586;2023-09-18T12:49:40;7.25;;;2.50;;
38182;SDS011;23991;52.430;10.586;2023-09-18T12:52:06;8.40;;;3.05;;
38182;SDS011;23991;52.430;10.586;2023-09-18T12:57:08;6.47;;;2.30;;
38182;SDS011;23991;52.430;10.586;2023-09-18T12:59:35;8.02;;;2.50;;
38182;SDS011;23991;52.430;10.586;2023-09-18T13:02:03;5.38;;;2.38;;
38182;SDS011;23991;52.430;10.586;2023-09-18T13:04:33;6.53;;;2.55;;
38182;SDS011;23991;52.430;10.586;2023-09-18T13:07:06;8.18;;;3.08;;
38182;SDS011;23991;52.430;10.586;2023-09-18T13:09:34;5.20;;;2.40;;
38182;SDS011;23991;52.430;10.586;2023-09-18T13:12:00;9.13;;;2.42;;
38182;SDS011;23991;52.430;10.586;2023-09-18T13:14:26;8.93;;;2.83;;
38182;SDS011;23991;52.430;10.586;2023-09-18T13:21:55;7.82;;;2.30;;
38182;SDS011;23991;52.430;10.586;2023-09-18T13:24:30;8.43;;;2.30;;
38182;SDS011;23991;52.430;10.586;2023-09-18T13:26:58;6.80;;;1.92;;
38182;SDS011;23991;52.430;10.586;2023-09-18T13:29:26;5.50;;;2.45;;
38182;SDS011;23991;52.430;10.586;2023-09-18T13:31:52;6.93;;;2.08;;
38182;SDS011;23991;52.430;10.586;2023-09-18T13:34:18;5.57;;;2.25;;
38182;SDS011;23991;52.430;10.586;2023-09-18T13:36:47;7.03;;;2.17;;
38182;SDS011;23991;52.430;10.586;2023-09-18T13:39:13;6.22;;;1.95;;
38182;SDS011;23991;52.430;10.586;2023-09-18T13:41:42;6.38;;;2.13;;
38182;SDS011;23991;52.430;10.586;2023-09-18T13:44:08;5.28;;;2.40;;
38182;SDS011;23991;52.430;10.586;2023-09-18T13:46:35;5.55;;;2.38;;
38182;SDS011;23991;52.430;10.586;2023-09-18T13:49:04;7.15;;;2.15;;
38182;SDS011;23991;52.430;10.586;2023-09-18T13:51:31;6.68;;;2.40;;
38182;SDS011;23991;52.430;10.586;2023-09-18T13:53:57;6.60;;;2.00;;
38182;SDS011;23991;52.430;10.586;2023-09-18T13:56:23;8.05;;;2.08;;
38182;SDS011;23991;52.430;10.586;2023-09-18T13:58:53;3.25;;;1.80;;
38182;SDS011;23991;52.430;10.586;2023-09-18T14:01:21;6.22;;;2.10;;
38182;SDS011;23991;52.430;10.586;2023-09-18T14:03:50;7.95;;;2.50;;
38182;SDS011;23991;52.430;10.586;2023-09-18T14:06:16;4.22;;;1.92;;
38182;SDS011;23991;52.430;10.586;2023-09-18T14:08:42;7.60;;;2.40;;
38182;SDS011;23991;52.430;10.586;2023-09-18T14:11:08;5.28;;;2.22;;
38182;SDS011;23991;52.430;10.586;2023-09-18T14:13:33;5.70;;;2.35;;
38182;SDS011;23991;52.430;10.586;2023-09-18T14:15:59;5.38;;;2.22;;
38182;SDS011;23991;52.430;10.586;2023-09-18T14:18:28;4.40;;;1.95;;
38182;SDS011;23991;52.430;10.586;2023-09-18T14:20:54;5.03;;;2.20;;
38182;SDS011;23991;52.430;10.586;2023-09-18T14:23:20;8.48;;;2.33;;
38182;SDS011;23991;52.430;10.586;2023-09-18T14:25:46;5.10;;;2.15;;
38182;SDS011;23991;52.430;10.586;2023-09-18T14:28:12;6.72;;;2.00;;
38182;SDS011;23991;52.430;10.586;2023-09-18T14:30:38;4.38;;;1.92;;
38182;SDS011;23991;52.430;10.586;2023-09-18T14:33:05;6.22;;;2.30;;
38182;SDS011;23991;52.430;10.586;2023-09-18T14:35:30;4.70;;;2.15;;
38182;SDS011;23991;52.430;10.586;2023-09-18T14:37:56;9.38;;;2.60;;
38182;SDS011;23991;52.430;10.586;2023-09-18T14:40:21;6.03;;;2.30;;
38182;SDS011;23991;52.430;10.586;2023-09-18T14:42:47;5.18;;;2.10;;
38182;SDS011;23991;52.430;10.586;2023-09-18T14:45:13;5.00;;;2.05;;
38182;SDS011;23991;52.430;10.586;2023-09-18T14:47:39;4.03;;;1.98;;
38182;SDS011;23991;52.430;10.586;2023-09-18T14:50:05;6.80;;;2.10;;
38182;SDS011;23991;52.430;10.586;2023-09-18T14:52:31;5.95;;;2.47;;
38182;SDS011;23991;52.430;10.586;2023-09-18T14:54:57;5.47;;;1.83;;
38182;SDS011;23991;52.430;10.586;2023-09-18T14:57:25;6.78;;;2.13;;
38182;SDS011;23991;52.430;10.586;2023-09-18T14:59:52;8.98;;;1.95;;
38182;SDS011;23991;52.430;10.586;2023-09-18T15:02:18;4.25;;;2.03;;
38182;SDS011;23991;52.430;10.586;2023-09-18T15:04:44;4.65;;;1.98;;